Time;durP1;ratioP1;P1;durP2;ratioP2;P2;SDS_P1;SDS_P2;PMS_P1;PMS_P2;Temp;Humidity;BMP_temperature;BMP_pressure;BME280_temperature;BME280_humidity;BME280_pressure;Samples;Min_cycle;Max_cycle;Signal;HPM_P1;HPM_P2
2022/03/16 00:00:13;;;;;;;11.03;6.87;;;2.90;99.90;;;;;;5073111;28;20179;-75
2022/03/16 00:02:39;;;;;;;21.37;8.00;;;2.80;99.90;;;;;;5072847;28;20204;-75
2022/03/16 00:05:05;;;;;;;11.77;7.97;;;2.70;99.90;;;;;;5072894;28;20234;-75
2022/03/16 00:07:31;;;;;;;12.20;8.00;;;2.60;99.90;;;;;;5073326;28;20171;-75
2022/03/16 00:09:57;;;;;;;15.77;8.03;;;2.60;99.90;;;;;;5072568;28;20203;-75
2022/03/16 00:12:22;;;;;;;11.03;7.87;;;2.70;99.90;;;;;;5072771;28;20175;-75
2022/03/16 00:14:48;;;;;;;15.47;7.90;;;2.60;99.90;;;;;;5056182;28;20205;-75
2022/03/16 00:17:13;;;;;;;15.50;10.10;;;2.60;99.90;;;;;;5056172;28;20176;-75
2022/03/16 00:19:40;;;;;;;11.93;7.73;;;2.70;99.90;;;;;;5072968;28;20183;-75
2022/03/16 00:22:06;;;;;;;10.83;8.23;;;2.80;99.90;;;;;;5055888;28;20183;-75
2022/03/16 00:24:32;;;;;;;11.00;7.50;;;2.90;99.90;;;;;;5072593;28;20242;-75
2022/03/16 00:26:58;;;;;;;15.60;7.47;;;3.00;99.90;;;;;;5072425;28;20215;-75
2022/03/16 00:29:23;;;;;;;14.03;7.37;;;3.00;99.90;;;;;;5072360;28;20210;-75
2022/03/16 00:31:49;;;;;;;8.43;7.07;;;3.00;99.90;;;;;;5055753;28;20181;-75
2022/03/16 00:34:15;;;;;;;21.63;7.13;;;2.90;99.90;;;;;;5072430;28;20211;-75
2022/03/16 00:36:41;;;;;;;14.63;7.70;;;2.70;99.90;;;;;;5072439;28;20172;-75
2022/03/16 00:39:06;;;;;;;33.40;7.90;;;2.50;99.90;;;;;;5072206;28;20240;-75
2022/03/16 00:41:34;;;;;;;15.67;7.93;;;2.30;99.90;;;;;;5055391;28;20190;-75
2022/03/16 00:43:59;;;;;;;20.70;8.33;;;2.10;99.90;;;;;;5055366;28;20213;-75
2022/03/16 00:46:25;;;;;;;25.17;8.90;;;2.00;99.90;;;;;;5055719;28;20208;-75
2022/03/16 00:48:50;;;;;;;26.30;9.20;;;2.10;99.90;;;;;;5055463;28;20209;-75
2022/03/16 00:51:16;;;;;;;24.73;9.13;;;2.10;99.90;;;;;;5055132;28;20177;-75
2022/03/16 00:53:42;;;;;;;19.87;8.53;;;2.10;99.90;;;;;;5071143;28;20230;-75
2022/03/16 00:56:08;;;;;;;23.57;8.30;;;2.20;99.90;;;;;;5071870;28;20261;-75
2022/03/16 00:58:35;;;;;;;21.33;8.07;;;2.30;99.90;;;;;;5072097;28;20653;-75
2022/03/16 01:01:01;;;;;;;26.40;8.23;;;2.20;99.90;;;;;;5055181;28;20174;-75
2022/03/16 01:03:28;;;;;;;14.60;8.27;;;2.10;99.90;;;;;;5071723;28;20195;-75
2022/03/16 01:05:54;;;;;;;18.87;8.17;;;2.00;99.90;;;;;;5071791;28;20173;-75
2022/03/16 01:08:19;;;;;;;20.10;9.03;;;1.90;99.90;;;;;;5054988;28;20185;-75
2022/03/16 01:10:45;;;;;;;15.20;8.53;;;1.90;99.90;;;;;;5072041;28;20181;-75
2022/03/16 01:13:11;;;;;;;22.87;9.27;;;1.90;99.90;;;;;;5054980;28;20205;-75
2022/03/16 01:15:36;;;;;;;20.27;8.03;;;2.10;99.90;;;;;;5054932;28;20241;-75
2022/03/16 01:18:02;;;;;;;23.90;8.30;;;2.10;99.90;;;;;;5054783;28;20181;-75
2022/03/16 01:20:28;;;;;;;27.07;8.03;;;2.20;99.90;;;;;;5054890;28;20174;-75
2022/03/16 01:22:53;;;;;;;18.43;8.13;;;2.20;99.90;;;;;;5054418;28;20211;-75
2022/03/16 01:25:19;;;;;;;37.10;8.87;;;2.20;99.90;;;;;;5054741;28;20274;-75
2022/03/16 01:27:45;;;;;;;17.83;8.03;;;2.20;99.90;;;;;;5054958;28;20178;-75
2022/03/16 01:30:13;;;;;;;17.17;7.03;;;2.20;99.90;;;;;;5071145;28;20207;-75
2022/03/16 01:32:39;;;;;;;25.83;8.40;;;2.20;99.90;;;;;;5054847;28;20183;-75
2022/03/16 01:35:05;;;;;;;41.90;8.90;;;2.20;99.90;;;;;;5071176;28;20262;-75
2022/03/16 01:37:31;;;;;;;31.70;8.10;;;2.10;99.90;;;;;;5054425;28;20170;-75
2022/03/16 01:39:57;;;;;;;38.93;8.43;;;1.90;99.90;;;;;;5054560;28;20205;-75
2022/03/16 01:42:22;;;;;;;54.53;12.37;;;1.90;99.90;;;;;;5070919;28;20181;-75
2022/03/16 01:44:50;;;;;;;25.67;8.13;;;2.00;99.90;;;;;;5054509;28;20638;-75
2022/03/16 01:47:19;;;;;;;21.50;8.73;;;2.00;99.90;;;;;;5071109;28;20188;-75
2022/03/16 01:49:47;;;;;;;22.80;7.77;;;2.10;99.90;;;;;;5070932;28;20208;-75
2022/03/16 01:52:16;;;;;;;23.63;7.87;;;2.10;99.90;;;;;;5054085;28;20170;-75
2022/03/16 01:54:42;;;;;;;37.17;8.40;;;2.10;99.90;;;;;;5054683;28;20193;-75
2022/03/16 01:57:09;;;;;;;35.67;8.00;;;2.10;99.90;;;;;;5054223;28;20170;-75
2022/03/16 01:59:36;;;;;;;43.17;8.43;;;2.10;99.90;;;;;;5054532;28;20182;-75
2022/03/16 02:02:04;;;;;;;28.83;7.77;;;2.10;99.90;;;;;;5054180;28;20173;-75
2022/03/16 02:04:29;;;;;;;24.90;9.10;;;1.90;99.90;;;;;;5054079;28;20208;-75
2022/03/16 02:06:55;;;;;;;29.90;8.20;;;1.90;99.90;;;;;;5054208;28;20174;-75
2022/03/16 02:09:24;;;;;;;35.87;8.60;;;1.90;99.90;;;;;;5054042;28;20209;-75
2022/03/16 02:11:50;;;;;;;18.97;7.67;;;2.00;99.90;;;;;;5054595;28;20662;-75
2022/03/16 02:14:17;;;;;;;33.93;8.87;;;1.90;99.90;;;;;;5072279;28;20719;-75
2022/03/16 02:16:46;;;;;;;10.70;7.30;;;1.90;99.90;;;;;;5070812;28;20170;-75
2022/03/16 02:19:12;;;;;;;11.97;7.83;;;2.00;99.90;;;;;;5070761;28;20181;-75
2022/03/16 02:21:40;;;;;;;21.80;7.97;;;2.20;99.90;;;;;;5070433;28;20172;-75
2022/03/16 02:24:06;;;;;;;18.77;8.10;;;2.20;99.90;;;;;;5108063;22;20225;-75
2022/03/16 02:26:32;;;;;;;26.93;9.17;;;2.20;99.90;;;;;;5072366;28;20169;-75
2022/03/16 02:28:58;;;;;;;25.03;8.53;;;2.20;99.90;;;;;;5070800;28;20201;-75
2022/03/16 02:31:24;;;;;;;27.93;9.20;;;2.30;99.90;;;;;;5053744;28;20169;-75
2022/03/16 02:33:50;;;;;;;36.80;9.20;;;2.40;99.90;;;;;;5070471;28;20194;-75
2022/03/16 02:36:15;;;;;;;33.30;9.00;;;2.40;99.90;;;;;;5037254;28;20169;-75
2022/03/16 02:38:41;;;;;;;24.60;8.40;;;2.40;99.90;;;;;;5037546;28;20228;-75
2022/03/16 02:41:07;;;;;;;34.17;8.23;;;2.40;99.90;;;;;;5053909;28;20201;-75
2022/03/16 02:43:32;;;;;;;20.63;9.77;;;2.30;99.90;;;;;;5037213;28;20226;-75
2022/03/16 02:45:58;;;;;;;33.80;8.87;;;2.30;99.90;;;;;;5070481;28;20261;-75
2022/03/16 02:48:23;;;;;;;33.00;9.97;;;2.20;99.90;;;;;;5053700;28;20607;-75
2022/03/16 02:50:49;;;;;;;24.97;9.67;;;2.10;99.90;;;;;;5053901;28;20266;-75
2022/03/16 02:53:15;;;;;;;38.70;9.80;;;2.10;99.90;;;;;;5053468;28;20192;-75
2022/03/16 02:55:43;;;;;;;37.37;9.37;;;2.00;99.90;;;;;;5071912;28;20161;-75
2022/03/16 02:58:09;;;;;;;48.90;13.37;;;2.10;99.90;;;;;;5070410;28;20290;-75
2022/03/16 03:00:34;;;;;;;30.53;9.17;;;2.00;99.90;;;;;;5053858;28;20195;-75
2022/03/16 03:03:00;;;;;;;44.87;9.97;;;2.00;99.90;;;;;;5053387;28;20224;-75
2022/03/16 03:05:26;;;;;;;31.37;9.13;;;1.90;99.90;;;;;;5070361;28;20202;-75
2022/03/16 03:07:51;;;;;;;31.77;9.27;;;2.00;99.90;;;;;;5053795;28;20185;-75
2022/03/16 03:10:17;;;;;;;26.60;9.03;;;1.90;99.90;;;;;;5053613;28;20240;-75
2022/03/16 03:12:43;;;;;;;28.30;9.43;;;1.90;99.90;;;;;;5053535;28;20182;-75
2022/03/16 03:15:11;;;;;;;33.30;9.47;;;1.90;99.90;;;;;;5053524;28;20200;-75
2022/03/16 03:17:37;;;;;;;28.70;9.13;;;2.00;99.90;;;;;;5056226;28;20174;-75
2022/03/16 03:20:04;;;;;;;28.93;8.73;;;1.90;99.90;;;;;;5073769;28;20713;-75
2022/03/16 03:22:29;;;;;;;43.20;9.60;;;2.00;99.90;;;;;;5073542;28;20188;-75
2022/03/16 03:24:56;;;;;;;24.47;9.10;;;1.90;99.90;;;;;;5057031;28;20210;-75
2022/03/16 03:27:22;;;;;;;22.40;8.83;;;1.90;99.90;;;;;;5056989;28;20189;-75
2022/03/16 03:29:48;;;;;;;20.27;8.30;;;2.00;99.90;;;;;;5057041;28;20646;-75
2022/03/16 03:32:13;;;;;;;22.53;8.00;;;2.00;99.90;;;;;;5073270;28;20259;-75
2022/03/16 03:34:39;;;;;;;36.83;9.83;;;2.10;99.90;;;;;;5073626;28;20599;-75
2022/03/16 03:37:06;;;;;;;24.23;8.00;;;2.10;99.90;;;;;;5056808;28;20175;-75
2022/03/16 03:39:32;;;;;;;19.00;9.00;;;2.10;99.90;;;;;;5057075;28;20194;-75
2022/03/16 03:41:58;;;;;;;23.97;9.80;;;2.10;99.90;;;;;;5073312;28;20261;-75
2022/03/16 03:44:24;;;;;;;24.53;7.93;;;2.10;99.90;;;;;;5073273;28;20201;-75
2022/03/16 03:46:50;;;;;;;19.10;7.77;;;2.20;99.90;;;;;;5056599;28;20183;-75
2022/03/16 03:49:15;;;;;;;18.53;8.27;;;2.30;99.90;;;;;;5056372;28;20201;-76
2022/03/16 03:51:41;;;;;;;16.33;7.47;;;2.20;99.90;;;;;;5056750;28;20230;-75
2022/03/16 03:54:06;;;;;;;22.43;7.37;;;2.10;99.90;;;;;;5056685;28;20194;-75
2022/03/16 03:56:32;;;;;;;37.40;7.97;;;2.10;99.90;;;;;;5056384;28;20243;-75
2022/03/16 03:58:57;;;;;;;30.67;8.40;;;2.10;99.90;;;;;;5056367;28;20725;-75
2022/03/16 04:01:23;;;;;;;29.17;7.57;;;2.00;99.90;;;;;;5072978;28;20187;-75
2022/03/16 04:03:50;;;;;;;33.30;7.80;;;2.00;99.90;;;;;;5056308;28;20587;-75
2022/03/16 04:06:16;;;;;;;39.90;8.20;;;1.90;99.90;;;;;;5073023;28;20181;-75
2022/03/16 04:08:42;;;;;;;31.87;8.00;;;1.80;99.90;;;;;;5056197;28;20594;-75
2022/03/16 04:11:09;;;;;;;41.73;8.87;;;1.70;99.90;;;;;;5073801;28;20256;-75
2022/03/16 04:13:35;;;;;;;37.17;8.97;;;1.70;99.90;;;;;;5055979;28;20295;-75
2022/03/16 04:16:00;;;;;;;25.67;8.03;;;1.70;99.90;;;;;;5039455;28;20301;-75
2022/03/16 04:18:27;;;;;;;44.30;8.43;;;1.70;99.90;;;;;;5056008;28;20188;-75
2022/03/16 04:20:53;;;;;;;27.53;7.80;;;1.70;99.90;;;;;;5072821;28;20530;-75
2022/03/16 04:23:18;;;;;;;37.27;7.60;;;1.60;99.90;;;;;;5055870;28;20333;-75
2022/03/16 04:25:45;;;;;;;35.93;7.30;;;1.60;99.90;;;;;;5056011;28;20200;-75
2022/03/16 04:28:11;;;;;;;15.53;7.37;;;1.60;99.90;;;;;;5073803;28;20212;-75
2022/03/16 04:30:36;;;;;;;14.43;7.10;;;1.60;99.90;;;;;;5072380;28;20681;-75
2022/03/16 04:33:02;;;;;;;22.73;7.90;;;1.80;99.90;;;;;;5038920;28;20661;-75
2022/03/16 04:35:28;;;;;;;19.87;7.63;;;1.90;99.90;;;;;;5055930;28;20183;-75
2022/03/16 04:37:53;;;;;;;16.63;6.87;;;1.70;99.90;;;;;;5055624;28;20173;-75
2022/03/16 04:40:19;;;;;;;19.03;8.27;;;1.70;99.90;;;;;;5039267;28;20188;-75
2022/03/16 04:42:45;;;;;;;12.50;7.40;;;1.70;99.90;;;;;;5055586;28;20521;-75
2022/03/16 04:45:10;;;;;;;15.63;8.20;;;1.80;99.90;;;;;;5055390;28;20244;-75
2022/03/16 04:47:36;;;;;;;18.77;8.10;;;1.80;99.90;;;;;;5072290;28;20552;-75
2022/03/16 04:50:02;;;;;;;20.20;7.60;;;1.80;99.90;;;;;;5055553;28;20640;-75
2022/03/16 04:52:28;;;;;;;21.40;8.30;;;1.80;99.90;;;;;;5055401;28;20537;-75
2022/03/16 04:54:54;;;;;;;16.30;8.33;;;1.80;99.90;;;;;;5038752;28;20668;-75
2022/03/16 04:57:19;;;;;;;17.87;8.43;;;1.80;99.90;;;;;;5038689;28;20187;-75
2022/03/16 04:59:45;;;;;;;51.23;9.73;;;1.90;99.90;;;;;;5038725;28;20185;-76
2022/03/16 05:02:10;;;;;;;30.80;9.20;;;1.90;99.90;;;;;;5054961;28;20652;-75
2022/03/16 05:04:36;;;;;;;16.63;8.80;;;2.00;99.90;;;;;;5055327;28;20201;-75
2022/03/16 05:07:02;;;;;;;32.53;10.00;;;2.00;99.90;;;;;;5055302;28;20192;-75
2022/03/16 05:09:28;;;;;;;18.33;8.97;;;2.00;99.90;;;;;;5071762;28;20212;-75
2022/03/16 05:11:53;;;;;;;71.13;14.17;;;2.00;99.90;;;;;;5071448;28;20169;-76
2022/03/16 05:14:19;;;;;;;41.17;9.83;;;2.00;99.90;;;;;;5054849;28;20292;-75
2022/03/16 05:16:45;;;;;;;20.03;8.37;;;2.10;99.90;;;;;;5038602;28;20178;-75
2022/03/16 05:19:10;;;;;;;34.27;9.20;;;2.10;99.90;;;;;;5038591;28;20181;-75
2022/03/16 05:21:36;;;;;;;26.17;8.30;;;2.00;99.90;;;;;;5054844;28;20227;-75
2022/03/16 05:24:02;;;;;;;33.80;8.87;;;1.90;99.90;;;;;;5054730;28;20225;-75
2022/03/16 05:26:27;;;;;;;43.20;9.03;;;1.90;99.90;;;;;;5054744;28;20660;-75
2022/03/16 05:28:53;;;;;;;35.97;8.53;;;1.90;99.90;;;;;;5054518;28;20620;-75
2022/03/16 05:31:20;;;;;;;32.57;8.80;;;1.80;99.90;;;;;;5038031;28;20200;-75
2022/03/16 05:33:46;;;;;;;31.67;8.87;;;1.80;99.90;;;;;;5054768;28;20196;-75
2022/03/16 05:36:12;;;;;;;15.70;8.07;;;1.80;99.90;;;;;;5054819;28;20646;-75
2022/03/16 05:38:38;;;;;;;12.67;7.70;;;1.90;99.90;;;;;;5037987;28;20647;-75
2022/03/16 05:41:04;;;;;;;15.27;7.17;;;1.90;99.90;;;;;;5070904;28;20170;-76
2022/03/16 05:43:29;;;;;;;29.37;7.50;;;2.00;99.90;;;;;;5037762;28;20232;-75
2022/03/16 05:45:55;;;;;;;39.17;8.20;;;2.00;99.90;;;;;;5071202;28;20588;-75
2022/03/16 05:48:20;;;;;;;39.57;8.90;;;1.90;99.90;;;;;;5054470;28;20177;-75
2022/03/16 05:50:46;;;;;;;26.80;8.17;;;2.00;99.90;;;;;;5037725;28;20741;-75
2022/03/16 05:53:13;;;;;;;21.90;8.20;;;2.00;99.90;;;;;;5054273;28;20220;-75
2022/03/16 05:55:39;;;;;;;16.90;7.80;;;2.00;99.90;;;;;;5071039;28;20188;-75
2022/03/16 05:58:05;;;;;;;23.23;7.43;;;2.00;99.90;;;;;;5054259;28;20216;-76
2022/03/16 06:00:31;;;;;;;18.17;7.17;;;1.90;99.90;;;;;;5037936;28;20174;-76
2022/03/16 06:02:57;;;;;;;13.90;7.37;;;2.00;99.90;;;;;;5037630;28;20210;-76
2022/03/16 06:05:23;;;;;;;17.77;7.50;;;2.10;99.90;;;;;;5054275;28;20379;-77
2022/03/16 06:07:48;;;;;;;21.00;10.93;;;2.10;99.90;;;;;;5054178;28;20213;-77
2022/03/16 06:10:17;;;;;;;13.83;7.20;;;2.20;99.90;;;;;;5070864;28;20672;-77
2022/03/16 06:13:09;;;;;;;15.60;6.93;;;2.20;99.90;;;;;;5054181;28;20176;-77
2022/03/16 06:15:40;;;;;;;20.93;7.90;;;2.20;99.90;;;;;;5068736;28;20185;-76
2022/03/16 06:18:06;;;;;;;22.97;9.23;;;2.20;99.90;;;;;;5037803;28;20185;-76
2022/03/16 06:20:34;;;;;;;15.17;7.87;;;2.10;99.90;;;;;;5054059;28;20182;-76
2022/03/16 06:23:00;;;;;;;17.17;7.83;;;2.10;99.90;;;;;;5037333;28;20185;-76
2022/03/16 06:25:25;;;;;;;18.47;8.47;;;2.10;99.90;;;;;;5037387;28;20185;-76
2022/03/16 06:27:52;;;;;;;21.43;8.83;;;2.20;99.90;;;;;;5054288;28;20656;-77
2022/03/16 06:30:18;;;;;;;21.73;9.63;;;2.20;99.90;;;;;;5070482;28;20212;-76
2022/03/16 06:32:45;;;;;;;29.03;8.83;;;2.30;99.90;;;;;;5070438;28;20328;-76
2022/03/16 06:35:11;;;;;;;20.53;7.70;;;2.30;99.90;;;;;;5054030;28;20200;-76
2022/03/16 06:37:37;;;;;;;26.63;7.87;;;2.20;99.90;;;;;;5070615;28;20268;-77
2022/03/16 06:40:04;;;;;;;25.97;8.40;;;2.30;99.90;;;;;;5053831;28;20274;-76
2022/03/16 06:42:30;;;;;;;20.03;8.27;;;2.30;99.90;;;;;;5053808;28;20245;-77
2022/03/16 06:44:56;;;;;;;29.97;7.73;;;2.30;99.90;;;;;;5070528;28;20292;-77
2022/03/16 06:47:22;;;;;;;24.77;8.30;;;2.30;99.90;;;;;;5070622;28;20697;-77
2022/03/16 06:49:48;;;;;;;11.77;7.03;;;2.20;99.90;;;;;;5070357;28;20577;-76
2022/03/16 06:52:13;;;;;;;14.03;6.90;;;2.10;99.90;;;;;;5072569;28;20212;-76
2022/03/16 06:54:39;;;;;;;10.33;6.40;;;2.00;99.90;;;;;;5057875;28;20250;-76
2022/03/16 06:57:05;;;;;;;8.70;6.50;;;2.50;99.90;;;;;;5075426;28;20170;-75
2022/03/16 06:59:30;;;;;;;7.83;5.90;;;3.40;99.90;;;;;;5057751;28;20179;-75
2022/03/16 07:01:56;;;;;;;6.60;5.80;;;4.10;99.90;;;;;;5040953;28;20181;-76
2022/03/16 07:04:22;;;;;;;19.23;7.00;;;4.40;99.90;;;;;;5057483;28;20225;-76
2022/03/16 07:06:47;;;;;;;12.60;7.03;;;4.30;99.90;;;;;;5037489;28;20290;-75
2022/03/16 07:09:13;;;;;;;9.80;6.70;;;4.10;99.90;;;;;;5040204;28;20293;-76
2022/03/16 07:11:38;;;;;;;31.23;7.47;;;3.80;99.90;;;;;;5056139;28;20262;-76
2022/03/16 07:16:48;;;;;;;24.93;7.10;;;3.20;99.90;;;;;;5060330;28;20257;-75
2022/03/16 07:19:13;;;;;;;22.60;6.90;;;2.90;99.90;;;;;;5040535;28;20676;-75
2022/03/16 07:21:39;;;;;;;30.13;7.70;;;2.90;99.90;;;;;;5057010;28;20175;-77
2022/03/16 07:24:05;;;;;;;20.10;7.47;;;2.60;99.90;;;;;;5040484;28;20222;-76
2022/03/16 07:26:31;;;;;;;20.97;7.73;;;2.60;99.90;;;;;;5056861;28;20545;-77
2022/03/16 07:28:57;;;;;;;19.20;7.73;;;2.80;99.90;;;;;;5040298;28;20204;-79
2022/03/16 07:31:23;;;;;;;12.43;7.93;;;2.90;99.90;;;;;;5056791;28;20179;-77
2022/03/16 07:33:48;;;;;;;12.77;5.97;;;2.90;99.90;;;;;;5040467;28;20214;-76
2022/03/16 07:36:14;;;;;;;16.50;6.33;;;2.90;99.90;;;;;;5057267;28;20182;-77
2022/03/16 07:38:40;;;;;;;17.67;6.07;;;2.90;99.90;;;;;;5057019;28;20187;-75
2022/03/16 07:41:05;;;;;;;8.63;5.80;;;2.90;99.90;;;;;;5073458;28;20205;-76
2022/03/16 07:43:31;;;;;;;19.10;6.63;;;3.10;99.90;;;;;;5073226;28;20293;-76
2022/03/16 07:45:58;;;;;;;8.50;6.43;;;3.10;99.90;;;;;;5040158;28;20176;-76
2022/03/16 07:48:24;;;;;;;8.70;6.90;;;3.20;99.90;;;;;;5040244;28;20178;-76
2022/03/16 07:50:50;;;;;;;9.77;6.63;;;3.30;99.90;;;;;;5056379;28;20216;-76
2022/03/16 07:53:16;;;;;;;20.13;7.20;;;3.40;99.90;;;;;;5056621;28;20203;-76
2022/03/16 07:55:42;;;;;;;10.83;6.87;;;3.40;99.90;;;;;;5073304;28;20202;-76
2022/03/16 07:58:08;;;;;;;11.00;6.90;;;3.50;99.90;;;;;;5056503;28;20183;-76
2022/03/16 08:00:33;;;;;;;9.77;6.67;;;3.60;99.90;;;;;;5056389;28;20217;-75
2022/03/16 08:03:01;;;;;;;8.13;6.03;;;3.60;99.90;;;;;;5072314;28;20196;-76
2022/03/16 08:05:28;;;;;;;7.87;6.30;;;3.70;99.90;;;;;;5056780;28;20184;-75
2022/03/16 08:07:54;;;;;;;7.63;5.67;;;3.70;99.90;;;;;;5073159;28;20199;-75
2022/03/16 08:10:20;;;;;;;14.33;6.33;;;3.80;99.90;;;;;;5072824;28;20243;-75
2022/03/16 08:12:46;;;;;;;7.30;5.87;;;3.70;99.90;;;;;;5055987;28;20241;-75
2022/03/16 08:15:12;;;;;;;6.73;5.43;;;3.70;99.90;;;;;;5072810;28;20662;-75
2022/03/16 08:17:38;;;;;;;9.10;6.17;;;3.80;99.90;;;;;;5072691;28;20189;-75
2022/03/16 08:20:04;;;;;;;7.57;5.60;;;3.80;99.90;;;;;;5056058;28;20184;-75
2022/03/16 08:22:32;;;;;;;9.23;6.33;;;3.80;99.90;;;;;;5055826;28;20652;-76
2022/03/16 08:25:00;;;;;;;8.00;6.07;;;3.80;99.90;;;;;;5056883;28;20222;-75
2022/03/16 08:27:26;;;;;;;9.80;7.03;;;3.80;99.90;;;;;;5056247;28;20669;-75
2022/03/16 08:29:53;;;;;;;9.50;7.27;;;3.90;99.90;;;;;;5056016;28;20210;-74
2022/03/16 08:32:19;;;;;;;9.40;7.07;;;4.00;99.90;;;;;;5072303;28;20192;-74
2022/03/16 12:30:20;;;;;;;14.80;10.30;;;14.10;99.90;;;;;;4975074;28;20584;-76
2022/03/16 12:32:46;;;;;;;14.03;10.73;;;14.10;99.90;;;;;;4941866;28;20639;-75
2022/03/16 12:35:13;;;;;;;13.13;10.00;;;14.00;99.90;;;;;;4974971;28;20235;-75
2022/03/16 12:37:49;;;;;;;12.83;10.23;;;14.20;99.90;;;;;;4942203;28;20208;-77
2022/03/16 12:40:15;;;;;;;13.50;10.20;;;14.30;99.90;;;;;;4957988;28;20267;-76
2022/03/16 12:42:42;;;;;;;14.43;10.50;;;14.70;99.90;;;;;;4941409;28;20216;-76
2022/03/16 12:45:12;;;;;;;14.07;10.47;;;15.10;99.90;;;;;;4957736;28;20270;-77
2022/03/16 12:47:43;;;;;;;12.60;10.40;;;15.30;99.90;;;;;;4957461;28;20211;-77
2022/03/16 12:50:13;;;;;;;13.13;9.87;;;15.40;99.90;;;;;;4925208;28;20208;-77
2022/03/16 12:52:40;;;;;;;13.60;10.60;;;15.50;99.90;;;;;;4957196;28;20211;-77
2022/03/16 12:55:18;;;;;;;13.57;10.37;;;15.60;99.90;;;;;;4957461;28;20207;-77
2022/03/16 12:57:51;;;;;;;15.63;10.97;;;15.50;99.90;;;;;;4941811;28;20724;-77
2022/03/16 13:00:17;;;;;;;14.00;10.57;;;15.50;99.90;;;;;;4941393;28;20729;-77
2022/03/16 13:02:44;;;;;;;13.47;10.23;;;15.50;99.90;;;;;;4925487;28;20195;-77
2022/03/16 13:05:10;;;;;;;13.83;10.73;;;15.70;99.90;;;;;;4974152;28;20219;-76
2022/03/16 13:07:38;;;;;;;13.63;11.00;;;15.80;99.90;;;;;;4941396;28;20184;-77
2022/03/16 13:10:06;;;;;;;13.93;10.40;;;15.80;99.90;;;;;;4956852;28;20242;-77
2022/03/16 13:12:31;;;;;;;14.83;10.93;;;16.00;99.90;;;;;;4956901;28;20188;-77
2022/03/16 13:14:57;;;;;;;13.23;10.83;;;16.10;99.90;;;;;;4940751;28;20204;-76
2022/03/16 13:17:24;;;;;;;14.20;10.47;;;16.00;99.90;;;;;;4957244;28;20180;-77
2022/03/16 13:19:55;;;;;;;12.43;10.20;;;15.90;99.90;;;;;;4974115;28;20251;-77
2022/03/16 13:22:26;;;;;;;13.23;10.40;;;16.10;99.90;;;;;;4926040;28;20188;-77
2022/03/16 13:24:57;;;;;;;13.10;10.33;;;16.10;99.90;;;;;;4941212;28;20232;-77
2022/03/16 13:27:25;;;;;;;12.70;10.47;;;16.00;99.90;;;;;;4956754;28;20177;-77
2022/03/16 13:29:53;;;;;;;15.60;10.97;;;15.90;99.90;;;;;;4956619;28;20219;-77
2022/03/16 13:32:32;;;;;;;13.87;10.67;;;15.90;99.90;;;;;;4940649;28;20207;-77
2022/03/16 13:35:21;;;;;;;12.30;10.83;;;15.80;99.90;;;;;;4956771;28;20340;-77
2022/03/16 13:37:53;;;;;;;16.10;11.13;;;16.00;99.90;;;;;;4956690;28;20198;-77
2022/03/16 13:40:31;;;;;;;14.80;11.50;;;15.80;99.90;;;;;;4956489;28;20867;-77
2022/03/16 13:43:10;;;;;;;13.53;9.73;;;15.60;99.90;;;;;;4940597;28;20191;-77
2022/03/16 13:45:49;;;;;;;12.97;10.37;;;15.20;99.90;;;;;;4925478;28;20180;-77
2022/03/16 13:48:22;;;;;;;11.77;9.57;;;15.00;99.90;;;;;;4940994;28;20184;-77
2022/03/16 13:50:55;;;;;;;12.60;10.13;;;15.00;99.90;;;;;;4956322;28;20205;-76
2022/03/16 13:53:47;;;;;;;11.90;9.87;;;14.90;99.90;;;;;;4973512;28;20185;-77
2022/03/16 13:56:22;;;;;;;14.97;11.47;;;15.30;99.90;;;;;;4941451;28;20172;-77
2022/03/16 13:58:53;;;;;;;12.47;10.10;;;15.60;99.90;;;;;;4956229;28;20183;-77
2022/03/16 14:01:24;;;;;;;12.07;9.93;;;16.30;99.90;;;;;;4956516;28;20180;-77
2022/03/16 14:04:03;;;;;;;13.17;10.17;;;16.40;99.90;;;;;;4956852;28;20196;-77
2022/03/16 14:06:38;;;;;;;13.43;10.17;;;16.00;99.90;;;;;;4940187;28;20746;-77
2022/03/16 14:09:19;;;;;;;14.93;10.43;;;15.90;99.90;;;;;;4956052;28;20259;-77
2022/03/16 14:11:51;;;;;;;13.17;10.30;;;15.90;99.90;;;;;;4955992;28;20631;-76
2022/03/16 14:14:17;;;;;;;13.53;10.10;;;15.40;99.90;;;;;;4956231;28;20196;-76
2022/03/16 14:16:46;;;;;;;13.20;10.07;;;15.10;99.90;;;;;;4924670;28;20273;-76
2022/03/16 14:19:35;;;;;;;13.33;10.20;;;15.10;99.90;;;;;;4924336;28;20674;-77
2022/03/16 14:22:01;;;;;;;14.00;10.23;;;15.10;99.90;;;;;;4940672;28;20191;-77
2022/03/16 14:24:27;;;;;;;15.57;10.63;;;15.50;99.90;;;;;;4939903;28;20228;-77
2022/03/16 14:26:53;;;;;;;14.37;11.10;;;15.70;99.90;;;;;;4924090;28;20184;-77
2022/03/16 14:29:19;;;;;;;13.60;10.63;;;16.20;99.90;;;;;;4955853;28;20295;-77
2022/03/16 14:31:45;;;;;;;13.93;10.77;;;16.30;99.90;;;;;;4940056;28;20600;-77
2022/03/16 14:34:12;;;;;;;14.10;10.93;;;16.30;99.90;;;;;;4940012;28;20199;-77
2022/03/16 14:36:37;;;;;;;14.23;11.13;;;15.90;99.90;;;;;;4955838;28;20227;-77
2022/03/16 14:39:04;;;;;;;15.87;11.27;;;15.40;99.90;;;;;;4939943;28;20180;-76
2022/03/16 14:41:29;;;;;;;14.73;10.83;;;14.80;99.90;;;;;;4939761;28;20173;-76
2022/03/16 14:43:55;;;;;;;14.40;10.97;;;14.60;99.90;;;;;;4923944;28;20204;-76
2022/03/16 14:46:21;;;;;;;13.90;10.07;;;14.90;99.90;;;;;;4955962;28;20231;-77
2022/03/16 14:48:46;;;;;;;12.67;10.33;;;14.80;99.90;;;;;;4955822;28;20184;-76
2022/03/16 14:51:12;;;;;;;13.00;10.60;;;15.00;99.90;;;;;;4972873;28;20678;-77
2022/03/16 14:53:38;;;;;;;12.20;10.23;;;14.80;99.90;;;;;;4955710;28;20255;-76
2022/03/16 14:56:03;;;;;;;15.27;11.03;;;14.70;99.90;;;;;;4955894;28;20235;-76
2022/03/16 14:58:29;;;;;;;12.83;10.47;;;14.40;99.90;;;;;;4939952;28;20193;-76
2022/03/16 15:00:55;;;;;;;16.47;10.93;;;14.00;99.90;;;;;;4924140;28;20245;-76
2022/03/16 15:03:20;;;;;;;12.23;9.80;;;13.80;99.90;;;;;;4939435;28;20299;-76
2022/03/16 15:05:46;;;;;;;14.10;10.37;;;13.80;99.90;;;;;;4924019;28;20191;-76
2022/03/16 15:08:12;;;;;;;15.90;11.63;;;13.80;99.90;;;;;;4940128;28;20195;-75
2022/03/16 15:10:41;;;;;;;14.07;10.50;;;13.70;99.90;;;;;;4972766;28;20622;-76
2022/03/16 15:13:07;;;;;;;13.53;10.90;;;13.80;99.90;;;;;;4957211;28;20588;-76
2022/03/16 15:15:33;;;;;;;14.43;10.20;;;13.70;99.90;;;;;;4959214;28;20727;-76
2022/03/16 15:17:59;;;;;;;14.37;10.50;;;13.60;99.90;;;;;;4959405;28;20195;-76
2022/03/16 15:20:24;;;;;;;14.10;10.93;;;13.50;99.90;;;;;;4943219;28;20215;-76
2022/03/16 15:22:50;;;;;;;14.23;10.40;;;13.50;99.90;;;;;;4958992;28;20180;-75
2022/03/16 15:25:16;;;;;;;14.90;10.30;;;13.50;99.90;;;;;;4958937;28;20231;-75
2022/03/16 15:27:42;;;;;;;14.37;10.97;;;13.40;99.90;;;;;;4943260;28;20678;-75
2022/03/16 15:30:08;;;;;;;13.67;10.30;;;13.20;99.90;;;;;;4942799;28;20208;-75
2022/03/16 15:32:34;;;;;;;13.90;10.93;;;13.10;99.90;;;;;;4942974;28;20189;-76
2022/03/16 15:35:01;;;;;;;14.30;10.50;;;13.10;99.90;;;;;;4926946;28;20200;-76
2022/03/16 15:37:28;;;;;;;13.53;10.87;;;12.90;99.90;;;;;;4958745;28;20554;-76
2022/03/16 15:42:47;;;;;;;14.13;10.57;;;12.90;99.90;;;;;;4976061;28;20674;-76
2022/03/16 15:45:14;;;;;;;12.43;9.97;;;12.70;99.90;;;;;;4943870;28;20203;-75
2022/03/16 15:47:40;;;;;;;14.90;11.03;;;12.60;99.90;;;;;;4958742;28;20267;-75
2022/03/16 15:50:08;;;;;;;13.63;10.23;;;12.60;99.90;;;;;;4975941;28;20204;-75
2022/03/16 15:52:34;;;;;;;13.67;10.17;;;12.50;99.90;;;;;;4958365;28;20610;-75
2022/03/16 15:55:01;;;;;;;16.17;11.13;;;12.40;99.90;;;;;;4942617;28;20206;-75
2022/03/16 15:57:27;;;;;;;14.43;10.93;;;12.40;99.90;;;;;;4942514;28;20271;-74
2022/03/16 15:59:52;;;;;;;14.40;11.07;;;12.30;99.90;;;;;;4942462;28;20271;-74
2022/03/16 16:02:18;;;;;;;13.57;10.70;;;12.30;99.90;;;;;;4942129;28;20634;-75
2022/03/16 16:04:44;;;;;;;16.53;11.13;;;12.80;99.90;;;;;;4942446;28;20270;-76
2022/03/16 16:07:14;;;;;;;14.00;10.97;;;12.80;99.90;;;;;;4943165;28;20187;-74
2022/03/16 16:10:12;;;;;;;14.73;11.43;;;12.70;99.90;;;;;;4958699;28;20199;-75
2022/03/16 16:12:41;;;;;;;14.57;10.63;;;12.60;99.90;;;;;;4974997;28;20623;-75
2022/03/16 16:15:09;;;;;;;16.37;11.27;;;12.50;99.90;;;;;;4958657;28;20709;-75
2022/03/16 16:17:34;;;;;;;14.77;10.90;;;12.30;99.90;;;;;;4942128;28;20188;-75
2022/03/16 16:20:00;;;;;;;15.57;11.50;;;12.10;99.90;;;;;;4926362;28;20180;-75
2022/03/16 16:22:26;;;;;;;14.37;11.33;;;12.10;99.90;;;;;;4941986;28;20198;-75
2022/03/16 16:24:52;;;;;;;13.77;10.47;;;12.10;99.90;;;;;;4925896;28;20228;-75
2022/03/16 16:27:17;;;;;;;13.93;10.20;;;12.00;99.90;;;;;;4957836;28;20191;-75
2022/03/16 16:29:46;;;;;;;15.17;11.13;;;11.90;99.90;;;;;;4957799;28;20299;-75
2022/03/16 16:32:12;;;;;;;14.07;11.00;;;11.90;99.90;;;;;;4941810;28;20208;-75
2022/03/16 16:34:39;;;;;;;15.00;11.07;;;11.80;99.90;;;;;;4974943;28;20195;-75
2022/03/16 16:37:04;;;;;;;14.13;10.20;;;11.80;99.90;;;;;;4957926;28;20229;-75
2022/03/16 16:39:30;;;;;;;15.70;11.13;;;11.80;99.90;;;;;;4925741;28;20192;-75